Time;durP1;ratioP1;P1;durP2;ratioP2;P2;SDS_P1;SDS_P2;PMS_P1;PMS_P2;Temp;Humidity;BMP_temperature;BMP_pressure;BME280_temperature;BME280_humidity;BME280_pressure;Samples;Min_cycle;Max_cycle;Signal;HPM_P1;HPM_P2
2023/10/19 00:02:15;;;;;;;393.30;246.90;;;27.90;99.90;;;;;;5044282;28;20485;-65
2023/10/19 00:04:42;;;;;;;407.33;259.55;;;27.90;99.90;;;;;;5050243;28;20024;-64
2023/10/19 00:07:15;;;;;;;429.63;273.02;;;27.90;99.90;;;;;;5038064;28;20072;-65
2023/10/19 00:09:46;;;;;;;418.45;273.00;;;27.80;99.90;;;;;;5035797;28;20029;-65
2023/10/19 00:12:15;;;;;;;411.42;264.35;;;27.80;99.90;;;;;;5047763;28;20036;-65
2023/10/19 00:14:41;;;;;;;419.33;264.98;;;27.90;99.90;;;;;;5054559;28;20029;-66
2023/10/19 00:17:10;;;;;;;432.60;275.30;;;28.00;99.90;;;;;;5044593;28;20025;-63
2023/10/19 00:19:55;;;;;;;450.17;287.20;;;28.10;99.90;;;;;;5046294;28;20493;-64
2023/10/19 00:22:24;;;;;;;463.25;310.40;;;28.10;99.90;;;;;;5039313;28;20057;-63
2023/10/19 00:24:50;;;;;;;454.67;314.08;;;28.10;99.90;;;;;;5044734;28;20017;-64
2023/10/19 00:27:19;;;;;;;482.40;323.02;;;28.10;99.90;;;;;;5043333;28;20375;-62
2023/10/19 00:29:49;;;;;;;464.95;325.23;;;28.10;99.90;;;;;;5045034;28;20082;-65
2023/10/19 00:32:17;;;;;;;480.15;326.42;;;28.10;99.90;;;;;;5046608;28;20028;-65
2023/10/19 00:34:51;;;;;;;477.55;326.60;;;28.20;99.90;;;;;;5053027;28;20071;-65
2023/10/19 00:37:20;;;;;;;474.33;328.00;;;28.20;99.90;;;;;;5053336;28;20099;-64
2023/10/19 00:39:54;;;;;;;488.48;342.42;;;28.20;99.90;;;;;;5053260;28;20033;-65
2023/10/19 00:42:25;;;;;;;471.27;336.38;;;28.30;99.90;;;;;;5053313;28;20031;-65
2023/10/19 00:45:00;;;;;;;461.50;325.05;;;28.40;99.90;;;;;;5053162;28;20025;-63
2023/10/19 00:47:33;;;;;;;463.00;327.85;;;28.40;99.90;;;;;;5033782;28;20029;-63
2023/10/19 00:50:05;;;;;;;464.17;324.08;;;28.40;99.90;;;;;;5033471;28;20032;-63
2023/10/19 00:52:40;;;;;;;464.88;327.48;;;28.50;99.90;;;;;;5033464;28;20390;-63
2023/10/19 00:55:07;;;;;;;469.30;325.50;;;28.60;99.90;;;;;;5032913;28;20021;-63
2023/10/19 00:57:36;;;;;;;472.42;339.92;;;28.60;99.90;;;;;;5033293;28;20073;-64
2023/10/19 01:00:13;;;;;;;471.95;325.35;;;28.60;99.90;;;;;;5040586;28;20033;-64
2023/10/19 01:02:46;;;;;;;476.58;335.33;;;28.60;99.90;;;;;;5043000;28;20040;-62
2023/10/19 01:05:13;;;;;;;496.65;359.77;;;28.70;99.90;;;;;;5041771;28;20029;-62
2023/10/19 01:07:44;;;;;;;515.20;371.20;;;28.70;99.90;;;;;;5042768;28;20474;-62
2023/10/19 01:10:20;;;;;;;530.90;377.47;;;28.70;99.90;;;;;;5040257;28;20367;-62
2023/10/19 01:12:47;;;;;;;510.55;373.13;;;28.70;99.90;;;;;;5042656;28;20800;-63
2023/10/19 01:17:59;;;;;;;515.30;374.77;;;28.70;99.90;;;;;;5052385;28;20071;-64
2023/10/19 01:25:59;;;;;;;489.83;359.58;;;28.80;99.90;;;;;;5044989;28;20071;-64
2023/10/19 01:28:53;;;;;;;479.77;348.58;;;28.80;99.90;;;;;;5041774;28;20075;-62
2023/10/19 01:34:09;;;;;;;414.52;294.83;;;29.00;99.90;;;;;;5041779;28;20104;-65
2023/10/19 01:36:44;;;;;;;419.58;289.13;;;29.00;99.90;;;;;;5041407;28;20032;-64
2023/10/19 01:39:12;;;;;;;418.50;289.88;;;29.10;99.90;;;;;;5039930;28;20037;-65
2023/10/19 01:41:41;;;;;;;368.30;246.60;;;29.20;99.90;;;;;;5042443;28;20090;-70
2023/10/19 01:44:07;;;;;;;336.88;224.00;;;29.30;99.90;;;;;;5043904;28;20071;-69
2023/10/19 01:46:36;;;;;;;300.27;203.55;;;29.50;99.90;;;;;;5042785;28;20434;-63
2023/10/19 01:49:04;;;;;;;304.67;196.40;;;29.60;99.90;;;;;;5042099;28;20021;-65
2023/10/19 01:51:32;;;;;;;302.75;198.57;;;29.60;99.90;;;;;;5039950;28;20013;-65
2023/10/19 01:54:03;;;;;;;290.48;185.90;;;29.60;99.90;;;;;;5042347;28;20083;-65
2023/10/19 01:56:30;;;;;;;262.40;171.38;;;29.70;99.90;;;;;;5040035;28;20120;-64
2023/10/19 01:58:59;;;;;;;247.80;161.40;;;29.80;99.90;;;;;;5042425;28;20477;-64
2023/10/19 02:03:58;;;;;;;254.77;170.93;;;29.90;99.90;;;;;;5042357;28;20022;-63
2023/10/19 02:06:28;;;;;;;216.82;143.38;;;29.90;99.90;;;;;;5041506;28;20014;-64
2023/10/19 02:11:49;;;;;;;206.43;131.90;;;29.90;99.90;;;;;;5043849;28;20526;-64
2023/10/19 02:14:18;;;;;;;195.68;127.80;;;30.00;99.90;;;;;;5042573;28;20022;-64
2023/10/19 02:16:50;;;;;;;195.25;127.18;;;30.00;99.90;;;;;;5052757;28;20029;-64
2023/10/19 02:19:19;;;;;;;196.45;125.57;;;30.00;99.90;;;;;;5052845;28;20106;-65
2023/10/19 02:21:48;;;;;;;183.60;123.20;;;30.00;99.90;;;;;;5041577;28;20026;-65
2023/10/19 02:24:15;;;;;;;195.68;127.55;;;30.00;99.90;;;;;;5036608;28;20025;-64
2023/10/19 02:26:46;;;;;;;184.43;125.05;;;30.10;99.90;;;;;;5036867;28;20017;-63
2023/10/19 02:29:14;;;;;;;182.25;123.22;;;30.00;99.90;;;;;;5036990;28;20026;-66
2023/10/19 02:31:41;;;;;;;150.60;96.32;;;30.00;99.90;;;;;;5036533;28;20421;-66
2023/10/19 02:34:10;;;;;;;83.72;56.08;;;30.00;99.90;;;;;;5036694;28;20032;-65
2023/10/19 02:36:41;;;;;;;74.90;49.00;;;30.10;99.90;;;;;;5036578;28;20037;-62
2023/10/19 02:39:09;;;;;;;72.45;49.03;;;30.10;99.90;;;;;;5045059;28;20048;-64
2023/10/19 02:41:39;;;;;;;76.57;52.15;;;30.20;99.90;;;;;;5047607;28;20036;-64
2023/10/19 02:44:09;;;;;;;71.85;48.60;;;30.30;99.90;;;;;;5045506;28;20017;-64
2023/10/19 02:46:41;;;;;;;75.10;48.42;;;30.20;99.90;;;;;;5047006;28;20029;-64
2023/10/19 02:49:13;;;;;;;82.85;52.10;;;30.30;99.90;;;;;;5042378;28;20044;-63
2023/10/19 02:51:46;;;;;;;87.10;60.33;;;30.30;99.90;;;;;;5042538;28;20034;-63
2023/10/19 02:54:24;;;;;;;88.20;60.40;;;30.40;99.90;;;;;;5044805;28;20101;-62
2023/10/19 02:56:58;;;;;;;95.68;66.07;;;30.50;99.90;;;;;;5044824;28;20021;-62
2023/10/19 02:59:28;;;;;;;92.57;61.75;;;30.60;99.90;;;;;;5039637;28;20026;-62
2023/10/19 03:02:18;;;;;;;73.40;50.10;;;30.60;99.90;;;;;;5039747;28;20380;-62
2023/10/19 03:04:45;;;;;;;70.55;48.80;;;30.60;99.90;;;;;;5045051;28;20067;-64
2023/10/19 03:07:12;;;;;;;85.93;54.15;;;30.60;99.90;;;;;;5042318;28;20070;-65
2023/10/19 03:09:39;;;;;;;95.95;62.95;;;30.70;99.90;;;;;;5044093;28;20033;-65
2023/10/19 03:12:10;;;;;;;96.72;63.97;;;30.70;99.90;;;;;;5044334;28;20031;-66
2023/10/19 03:14:37;;;;;;;86.70;59.00;;;30.60;99.90;;;;;;5042874;28;20063;-66
2023/10/19 03:17:05;;;;;;;97.68;65.03;;;30.60;99.90;;;;;;5044391;28;20045;-65
2023/10/19 03:19:31;;;;;;;79.25;55.17;;;30.70;99.90;;;;;;5042339;28;20478;-66
2023/10/19 03:22:00;;;;;;;82.18;56.70;;;30.80;99.90;;;;;;5045535;28;20028;-66
2023/10/19 03:24:36;;;;;;;84.18;56.47;;;30.90;99.90;;;;;;5044402;28;20094;-66
2023/10/19 03:27:13;;;;;;;83.30;56.25;;;31.00;99.90;;;;;;5042739;28;20017;-65
2023/10/19 03:29:46;;;;;;;76.68;49.78;;;31.00;99.90;;;;;;5043738;28;20405;-64
2023/10/19 03:32:13;;;;;;;71.45;49.53;;;31.00;99.90;;;;;;5043236;28;20052;-66
2023/10/19 03:34:43;;;;;;;74.80;51.05;;;31.00;99.90;;;;;;5046636;28;20055;-64
2023/10/19 03:37:12;;;;;;;72.68;48.65;;;31.00;99.90;;;;;;5047125;28;20041;-66
2023/10/19 03:39:40;;;;;;;67.20;46.45;;;31.00;99.90;;;;;;5035563;28;20096;-65
2023/10/19 03:42:07;;;;;;;72.20;48.20;;;31.00;99.90;;;;;;5037478;28;20098;-70
2023/10/19 03:47:20;;;;;;;96.53;65.82;;;31.10;99.90;;;;;;5039139;28;20018;-69
2023/10/19 03:49:50;;;;;;;88.65;60.55;;;31.20;99.90;;;;;;5037301;28;20024;-70
2023/10/19 03:54:44;;;;;;;91.05;60.72;;;31.20;99.90;;;;;;5036761;28;20021;-69
2023/10/19 03:57:12;;;;;;;97.35;65.22;;;31.30;99.90;;;;;;5037340;28;20036;-68
2023/10/19 03:59:39;;;;;;;117.15;75.13;;;31.30;99.90;;;;;;5037022;28;20025;-69
2023/10/19 04:02:13;;;;;;;101.43;70.93;;;31.40;99.90;;;;;;5036753;28;20375;-68
2023/10/19 04:04:43;;;;;;;102.82;67.38;;;31.50;99.90;;;;;;5035409;28;20029;-68
2023/10/19 04:07:20;;;;;;;99.40;63.85;;;31.60;99.90;;;;;;5036576;28;20094;-66
2023/10/19 04:12:36;;;;;;;103.47;71.68;;;31.70;99.90;;;;;;5044590;28;20025;-67
2023/10/19 04:15:16;;;;;;;98.82;68.95;;;31.70;99.90;;;;;;5043762;28;20071;-69
2023/10/19 04:17:46;;;;;;;114.85;81.75;;;31.70;99.90;;;;;;5041935;28;20124;-66
2023/10/19 04:22:46;;;;;;;106.13;72.90;;;31.90;99.90;;;;;;5042303;28;20036;-68
2023/10/19 04:25:13;;;;;;;98.82;62.13;;;31.90;99.90;;;;;;5044386;28;20021;-68
2023/10/19 04:27:43;;;;;;;79.72;56.15;;;31.90;99.90;;;;;;5043123;28;20033;-68
2023/10/19 04:30:18;;;;;;;86.65;56.75;;;31.90;99.90;;;;;;5043010;28;20080;-68
2023/10/19 04:32:45;;;;;;;80.65;54.63;;;31.90;99.90;;;;;;5044712;28;20022;-68
2023/10/19 04:35:24;;;;;;;78.32;52.75;;;32.00;99.90;;;;;;5043162;28;20051;-68
2023/10/19 04:37:54;;;;;;;78.22;53.53;;;32.00;99.90;;;;;;5040547;28;20049;-68
2023/10/19 04:40:22;;;;;;;87.75;57.85;;;32.00;99.90;;;;;;5044836;28;20032;-69
2023/10/19 04:42:53;;;;;;;86.20;58.05;;;32.00;99.90;;;;;;5044905;28;20080;-69
2023/10/19 04:45:20;;;;;;;86.95;57.65;;;32.10;99.90;;;;;;5041549;28;20009;-68
2023/10/19 04:47:52;;;;;;;88.57;58.28;;;32.20;99.90;;;;;;5042048;28;20018;-68
2023/10/19 04:50:18;;;;;;;79.63;53.17;;;32.20;99.90;;;;;;5042034;28;20025;-67
2023/10/19 04:52:45;;;;;;;86.95;51.55;;;32.30;99.90;;;;;;5043830;28;20021;-68
2023/10/19 04:55:12;;;;;;;79.18;50.58;;;32.50;99.90;;;;;;5042506;28;20067;-68
2023/10/19 04:57:38;;;;;;;80.38;52.47;;;32.50;99.90;;;;;;5042060;28;20486;-68
2023/10/19 05:00:05;;;;;;;89.47;55.28;;;32.60;99.90;;;;;;5044830;28;20114;-67
2023/10/19 05:02:32;;;;;;;74.80;50.75;;;32.80;99.90;;;;;;5054418;28;20107;-67
2023/10/19 05:04:58;;;;;;;76.38;49.40;;;32.80;99.90;;;;;;5053865;28;20382;-66
2023/10/19 05:07:26;;;;;;;69.00;49.13;;;32.90;99.90;;;;;;5039012;28;20029;-67
2023/10/19 05:09:53;;;;;;;79.30;49.42;;;32.80;99.90;;;;;;5033688;28;20026;-67
2023/10/19 05:12:21;;;;;;;80.80;51.40;;;33.00;99.90;;;;;;5033659;28;20029;-66
2023/10/19 05:14:48;;;;;;;90.53;53.95;;;32.90;99.90;;;;;;5033553;28;20076;-66
2023/10/19 05:17:14;;;;;;;75.82;53.25;;;33.00;99.90;;;;;;5033575;28;20026;-67
2023/10/19 05:19:41;;;;;;;81.80;54.35;;;33.00;99.90;;;;;;5033308;28;20386;-67
2023/10/19 05:22:09;;;;;;;90.70;55.55;;;33.00;99.90;;;;;;5033241;28;20025;-66
2023/10/19 05:24:36;;;;;;;94.82;58.03;;;33.00;99.90;;;;;;5033397;28;20019;-64
2023/10/19 05:27:03;;;;;;;91.32;56.20;;;33.00;99.90;;;;;;5033488;28;20028;-67
2023/10/19 05:29:35;;;;;;;83.75;55.45;;;33.00;99.90;;;;;;5033001;28;20034;-66
2023/10/19 05:32:03;;;;;;;100.50;58.70;;;33.00;99.90;;;;;;5033747;28;20022;-67
2023/10/19 05:34:32;;;;;;;91.07;58.47;;;33.00;99.90;;;;;;5033333;28;20040;-68
2023/10/19 05:37:01;;;;;;;88.18;57.35;;;33.00;99.90;;;;;;5033199;28;20021;-67
2023/10/19 05:39:31;;;;;;;100.53;59.58;;;33.00;99.90;;;;;;5033028;28;20041;-66
2023/10/19 05:42:00;;;;;;;88.07;56.17;;;33.20;99.90;;;;;;5033086;28;20049;-68
2023/10/19 05:44:30;;;;;;;87.63;56.80;;;33.30;99.90;;;;;;5033447;28;20390;-66
2023/10/19 05:46:58;;;;;;;84.88;58.80;;;33.40;99.90;;;;;;5033168;28;20021;-67
2023/10/19 05:49:25;;;;;;;84.50;56.25;;;33.60;99.90;;;;;;5035734;28;20129;-67
2023/10/19 05:51:52;;;;;;;94.35;60.53;;;33.60;99.90;;;;;;5033040;28;20029;-66
2023/10/19 05:54:18;;;;;;;86.15;59.35;;;33.60;99.90;;;;;;5033241;28;20086;-68
2023/10/19 05:56:45;;;;;;;87.57;54.53;;;33.50;99.90;;;;;;5037165;28;20417;-67
2023/10/19 05:59:13;;;;;;;78.57;50.97;;;33.50;99.90;;;;;;5037078;28;20037;-68
2023/10/19 06:01:41;;;;;;;84.65;52.17;;;33.60;99.90;;;;;;5037085;28;20036;-66
2023/10/19 06:04:07;;;;;;;80.40;51.05;;;33.80;99.90;;;;;;5037211;28;20017;-67
2023/10/19 06:06:34;;;;;;;83.65;50.47;;;33.80;99.90;;;;;;5047094;28;20024;-67
2023/10/19 06:09:02;;;;;;;87.15;55.58;;;33.90;99.90;;;;;;5046627;28;20013;-67
2023/10/19 06:11:37;;;;;;;86.00;57.20;;;33.90;99.90;;;;;;5043557;28;20041;-67
2023/10/19 06:14:06;;;;;;;86.85;57.20;;;33.90;99.90;;;;;;5043691;28;20017;-67
2023/10/19 06:16:34;;;;;;;103.13;65.65;;;33.90;99.90;;;;;;5041798;28;20025;-67
2023/10/19 06:19:02;;;;;;;93.68;62.90;;;33.90;99.90;;;;;;5044505;28;20405;-67
2023/10/19 06:21:30;;;;;;;79.25;52.08;;;33.90;98.60;;;;;;5045893;28;20539;-68
2023/10/19 06:23:56;;;;;;;72.65;46.03;;;33.80;99.10;;;;;;5045987;28;20025;-68
2023/10/19 06:26:23;;;;;;;70.38;46.30;;;33.80;99.10;;;;;;5045405;28;20021;-68
2023/10/19 06:28:50;;;;;;;82.28;56.28;;;33.90;99.60;;;;;;5047066;28;20104;-68
2023/10/19 06:31:17;;;;;;;94.07;58.88;;;33.90;99.90;;;;;;5043428;28;20025;-68
2023/10/19 06:33:43;;;;;;;86.57;59.88;;;34.00;98.70;;;;;;5047111;28;20478;-69
2023/10/19 06:36:10;;;;;;;102.68;66.85;;;34.00;99.40;;;;;;5042770;28;20025;-68
2023/10/19 06:38:37;;;;;;;120.80;81.47;;;34.00;99.90;;;;;;5046211;28;20052;-68
2023/10/19 06:41:11;;;;;;;139.75;88.13;;;34.10;99.90;;;;;;5046469;28;20022;-69
2023/10/19 06:43:39;;;;;;;148.25;95.03;;;34.10;99.90;;;;;;5044492;28;20025;-69
2023/10/19 06:46:07;;;;;;;140.27;93.25;;;34.20;99.90;;;;;;5044863;28;20033;-68
2023/10/19 06:48:33;;;;;;;149.05;98.63;;;34.20;99.90;;;;;;5046646;28;20103;-68
2023/10/19 06:51:00;;;;;;;153.60;97.45;;;34.20;99.90;;;;;;5046446;28;20462;-68
2023/10/19 06:53:27;;;;;;;136.90;89.90;;;34.20;99.60;;;;;;5043609;28;20025;-68
2023/10/19 06:55:54;;;;;;;143.23;89.93;;;34.20;99.90;;;;;;5045227;28;20491;-66
2023/10/19 06:58:25;;;;;;;154.55;101.53;;;34.20;99.80;;;;;;5044699;28;20029;-65
2023/10/19 07:00:56;;;;;;;163.82;104.32;;;34.20;99.30;;;;;;5041486;28;20025;-65
2023/10/19 07:03:23;;;;;;;141.07;93.85;;;34.10;99.10;;;;;;5043784;28;20030;-65
2023/10/19 07:05:53;;;;;;;143.45;92.15;;;34.10;99.30;;;;;;5052495;28;20022;-64
2023/10/19 07:08:21;;;;;;;138.15;87.10;;;34.00;99.60;;;;;;5042014;28;20025;-64
2023/10/19 07:10:49;;;;;;;118.53;76.72;;;34.10;99.90;;;;;;5044680;28;20079;-65
2023/10/19 07:13:16;;;;;;;113.28;66.97;;;34.10;99.20;;;;;;5046553;28;20375;-65
2023/10/19 07:15:45;;;;;;;96.00;62.28;;;34.10;99.30;;;;;;5044835;28;20021;-65
2023/10/19 07:18:13;;;;;;;78.10;51.17;;;34.10;98.70;;;;;;5044040;28;20083;-65
2023/10/19 07:20:42;;;;;;;94.60;60.67;;;34.10;98.00;;;;;;5045488;28;20021;-64
2023/10/19 07:23:18;;;;;;;108.05;66.43;;;34.00;97.60;;;;;;5045997;28;20021;-64
2023/10/19 07:25:47;;;;;;;97.68;64.85;;;34.00;98.50;;;;;;5042969;28;20033;-64
2023/10/19 07:28:15;;;;;;;74.78;52.25;;;34.00;98.10;;;;;;5045088;28;20017;-64
2023/10/19 07:30:43;;;;;;;81.43;52.55;;;33.90;97.00;;;;;;5044543;28;20028;-66
2023/10/19 07:33:10;;;;;;;86.32;53.67;;;33.80;97.00;;;;;;5043688;28;20017;-64
2023/10/19 07:35:38;;;;;;;82.55;52.47;;;33.80;97.40;;;;;;5041088;28;20025;-65
2023/10/19 07:38:07;;;;;;;78.47;53.45;;;33.90;97.70;;;;;;5043963;28;20029;-65
2023/10/19 07:40:35;;;;;;;54.25;36.25;;;33.90;98.10;;;;;;5045466;28;20079;-66
2023/10/19 07:43:03;;;;;;;40.53;26.45;;;33.90;99.40;;;;;;5044041;28;20014;-65
2023/10/19 07:45:34;;;;;;;44.42;27.05;;;33.70;99.90;;;;;;5043964;28;20028;-64
2023/10/19 07:48:07;;;;;;;38.88;23.80;;;33.50;99.90;;;;;;5047768;28;20021;-67
2023/10/19 07:50:35;;;;;;;47.83;30.60;;;33.10;99.90;;;;;;5047385;28;20017;-67
2023/10/19 07:53:02;;;;;;;47.65;29.20;;;32.90;99.90;;;;;;5045168;28;20009;-66
2023/10/19 07:55:28;;;;;;;42.35;25.45;;;32.80;99.90;;;;;;5044526;28;20033;-65
2023/10/19 07:57:57;;;;;;;46.97;30.05;;;32.70;99.90;;;;;;5045523;28;20028;-64
2023/10/19 08:00:23;;;;;;;44.78;29.05;;;32.60;99.90;;;;;;5041600;28;20400;-64
2023/10/19 08:02:51;;;;;;;40.17;25.50;;;32.50;99.90;;;;;;5044502;28;20035;-66
2023/10/19 08:05:20;;;;;;;34.17;22.67;;;32.50;99.90;;;;;;5041212;28;20025;-66
2023/10/19 08:07:47;;;;;;;29.90;20.77;;;32.50;99.90;;;;;;5042484;28;20028;-65
2023/10/19 08:10:16;;;;;;;33.03;23.88;;;32.50;99.90;;;;;;5051232;28;20025;-65
2023/10/19 08:12:47;;;;;;;39.38;24.48;;;32.30;99.90;;;;;;5054422;28;20036;-65
2023/10/19 08:15:17;;;;;;;36.75;24.75;;;32.10;99.90;;;;;;5054350;28;20057;-65
2023/10/19 08:17:46;;;;;;;37.15;24.92;;;32.00;99.90;;;;;;5053766;28;20056;-66
2023/10/19 08:20:32;;;;;;;38.33;25.80;;;32.00;99.90;;;;;;5053670;28;20029;-67
2023/10/19 08:23:01;;;;;;;46.25;28.73;;;32.10;99.90;;;;;;5054317;28;20085;-63
2023/10/19 08:25:28;;;;;;;51.63;32.05;;;32.00;99.90;;;;;;5046442;28;20035;-64
2023/10/19 08:27:58;;;;;;;51.97;26.73;;;32.00;99.90;;;;;;5034622;28;20370;-65
2023/10/19 08:30:25;;;;;;;36.72;24.83;;;31.80;99.90;;;;;;5034295;28;20036;-64
2023/10/19 08:32:52;;;;;;;34.10;21.55;;;31.60;99.90;;;;;;5034338;28;20100;-65
2023/10/19 08:35:24;;;;;;;33.40;21.58;;;31.60;99.90;;;;;;5034099;28;20021;-65
2023/10/19 08:37:52;;;;;;;42.85;23.60;;;31.60;99.90;;;;;;5033918;28;20398;-65
2023/10/19 08:40:21;;;;;;;44.72;29.63;;;31.60;99.90;;;;;;5034058;28;20033;-64
2023/10/19 08:42:48;;;;;;;86.43;58.85;;;31.70;99.90;;;;;;5034088;28;20108;-64
2023/10/19 08:45:16;;;;;;;60.30;38.03;;;31.80;99.90;;;;;;5033881;28;20072;-63
2023/10/19 08:47:59;;;;;;;51.42;33.88;;;31.70;99.90;;;;;;5034228;28;20382;-64
2023/10/19 08:50:30;;;;;;;44.30;28.08;;;31.80;99.90;;;;;;5033751;28;20042;-64
2023/10/19 08:52:59;;;;;;;39.75;23.58;;;31.50;99.90;;;;;;5033960;28;20113;-65
2023/10/19 08:55:26;;;;;;;47.20;25.67;;;31.50;99.90;;;;;;5033879;28;20033;-65
2023/10/19 08:57:53;;;;;;;36.75;21.20;;;31.40;99.90;;;;;;5033707;28;20413;-63
2023/10/19 09:00:24;;;;;;;27.08;15.63;;;31.30;99.90;;;;;;5033705;28;20040;-62
2023/10/19 09:02:53;;;;;;;36.78;22.63;;;31.20;99.90;;;;;;5033733;28;20466;-62
2023/10/19 09:05:23;;;;;;;74.03;37.17;;;31.00;99.90;;;;;;5033632;28;20114;-63
2023/10/19 09:07:56;;;;;;;51.47;26.92;;;31.00;99.90;;;;;;5033572;28;20478;-62
2023/10/19 09:10:25;;;;;;;35.72;20.25;;;31.00;99.90;;;;;;5033568;28;20030;-62
2023/10/19 09:13:04;;;;;;;59.83;31.55;;;31.00;99.90;;;;;;5033492;28;20025;-62
2023/10/19 09:15:34;;;;;;;66.85;36.13;;;31.00;99.90;;;;;;5033635;28;20026;-62
2023/10/19 09:18:15;;;;;;;68.72;37.75;;;31.10;99.90;;;;;;5033730;28;20029;-63
2023/10/19 09:20:53;;;;;;;77.13;47.65;;;31.00;99.90;;;;;;5033538;28;20108;-63
2023/10/19 09:23:29;;;;;;;43.95;25.02;;;31.00;99.90;;;;;;5033474;28;20058;-63
2023/10/19 09:25:58;;;;;;;37.70;17.35;;;31.00;99.90;;;;;;5033413;28;20105;-62
2023/10/19 09:28:25;;;;;;;40.25;27.42;;;30.90;99.90;;;;;;5033554;28;20032;-64
2023/10/19 09:30:53;;;;;;;31.05;20.27;;;30.90;99.90;;;;;;5032973;28;20032;-63
2023/10/19 09:33:21;;;;;;;38.30;27.50;;;30.80;99.90;;;;;;5033306;28;20025;-64
2023/10/19 09:35:50;;;;;;;37.05;24.92;;;30.80;99.90;;;;;;5033136;28;20052;-64
2023/10/19 09:38:26;;;;;;;45.20;32.47;;;30.80;99.90;;;;;;5033046;28;20049;-64
2023/10/19 09:40:59;;;;;;;88.05;50.40;;;30.80;99.90;;;;;;5032900;28;20072;-64
2023/10/19 09:43:38;;;;;;;46.60;30.15;;;30.90;99.90;;;;;;5033210;28;20057;-64
2023/10/19 09:46:09;;;;;;;33.65;21.45;;;30.90;99.90;;;;;;5032790;28;20426;-64
2023/10/19 09:48:49;;;;;;;36.67;23.98;;;30.70;99.90;;;;;;5032812;28;20017;-63
2023/10/19 09:51:19;;;;;;;36.08;22.58;;;30.70;99.90;;;;;;5033055;28;20061;-64
2023/10/19 09:54:12;;;;;;;42.13;26.63;;;30.80;99.90;;;;;;5033202;28;20090;-65
2023/10/19 09:56:46;;;;;;;55.78;34.20;;;30.80;99.90;;;;;;5031659;28;20402;-63
2023/10/19 09:59:38;;;;;;;49.40;32.75;;;30.70;99.90;;;;;;5033002;28;20386;-63
2023/10/19 10:02:15;;;;;;;46.60;29.10;;;30.70;99.90;;;;;;5032961;28;20029;-62
2023/10/19 10:04:46;;;;;;;38.17;24.58;;;30.70;99.90;;;;;;5033007;28;20022;-62
2023/10/19 10:07:12;;;;;;;34.45;21.25;;;30.70;99.90;;;;;;5032752;28;20026;-63
2023/10/19 10:09:44;;;;;;;38.10;24.40;;;30.70;99.90;;;;;;5033070;28;20054;-62
2023/10/19 10:12:24;;;;;;;48.45;32.42;;;30.70;99.90;;;;;;5028865;28;20026;-63
2023/10/19 10:14:58;;;;;;;67.13;42.47;;;30.80;99.90;;;;;;5032315;28;20045;-63
2023/10/19 10:17:29;;;;;;;61.25;37.05;;;30.70;99.90;;;;;;5023056;28;20036;-64
2023/10/19 10:20:18;;;;;;;61.08;38.83;;;30.60;99.90;;;;;;5032634;28;20547;-65
2023/10/19 10:23:05;;;;;;;69.15;41.40;;;30.50;99.90;;;;;;5032664;28;20419;-64
2023/10/19 10:25:34;;;;;;;71.53;48.15;;;30.50;99.90;;;;;;5032635;28;20064;-65
2023/10/19 10:28:05;;;;;;;83.88;51.58;;;30.60;99.90;;;;;;5032748;28;20424;-65
2023/10/19 10:30:31;;;;;;;83.57;51.08;;;30.50;99.90;;;;;;5032436;28;20033;-63
2023/10/19 10:32:59;;;;;;;78.30;49.80;;;30.50;99.90;;;;;;5032619;28;20029;-64
2023/10/19 10:35:41;;;;;;;93.50;55.92;;;30.50;99.90;;;;;;5032410;28;20544;-63
2023/10/19 10:38:09;;;;;;;100.72;63.05;;;30.60;99.90;;;;;;5032484;28;20457;-62
2023/10/19 10:40:50;;;;;;;102.85;63.65;;;30.60;99.90;;;;;;5032444;28;20029;-63
2023/10/19 10:43:19;;;;;;;101.78;61.50;;;30.60;99.90;;;;;;5036213;28;20026;-63
2023/10/19 10:45:46;;;;;;;92.10;59.53;;;30.60;99.90;;;;;;5036391;28;20021;-62
2023/10/19 10:48:17;;;;;;;100.80;61.33;;;30.60;99.90;;;;;;5035989;28;20025;-62
2023/10/19 10:50:45;;;;;;;98.25;59.72;;;30.60;99.90;;;;;;5036265;28;20026;-63
2023/10/19 10:53:13;;;;;;;108.32;63.30;;;30.60;99.90;;;;;;5036140;28;20425;-63
2023/10/19 10:55:40;;;;;;;123.88;66.70;;;30.60;99.90;;;;;;5035912;28;20025;-63
2023/10/19 10:58:07;;;;;;;123.85;69.97;;;30.60;99.90;;;;;;5035983;28;20029;-63
2023/10/19 11:00:35;;;;;;;113.70;67.53;;;30.60;99.90;;;;;;5036065;28;20017;-65
2023/10/19 11:03:07;;;;;;;112.90;68.00;;;30.60;99.90;;;;;;5035788;28;20056;-64
2023/10/19 11:05:35;;;;;;;109.50;64.90;;;30.60;99.90;;;;;;5036058;28;20028;-62
2023/10/19 11:08:15;;;;;;;112.90;67.72;;;30.60;99.90;;;;;;5035786;28;20108;-63
2023/10/19 11:10:46;;;;;;;119.97;68.18;;;30.70;99.90;;;;;;5035851;28;20394;-62
2023/10/19 11:13:14;;;;;;;120.43;67.90;;;30.60;99.90;;;;;;5020211;28;20021;-63
2023/10/19 11:15:50;;;;;;;112.90;68.55;;;30.50;99.90;;;;;;5031316;28;20482;-63
2023/10/19 11:18:40;;;;;;;133.30;78.97;;;30.50;99.90;;;;;;5020203;28;20049;-63
2023/10/19 11:21:14;;;;;;;128.68;77.07;;;30.50;99.90;;;;;;5032614;28;20030;-64
2023/10/19 11:23:42;;;;;;;131.27;78.40;;;30.50;99.90;;;;;;5035631;28;20104;-63
2023/10/19 11:26:14;;;;;;;124.90;75.90;;;30.50;99.90;;;;;;5035449;28;20068;-63
2023/10/19 11:28:47;;;;;;;115.53;67.97;;;30.40;99.90;;;;;;5035558;28;20104;-64
2023/10/19 11:31:16;;;;;;;118.78;71.93;;;30.40;99.90;;;;;;5035530;28;20056;-65
2023/10/19 11:33:44;;;;;;;116.07;70.65;;;30.40;99.90;;;;;;5038082;28;20023;-64
2023/10/19 11:36:12;;;;;;;200.75;127.70;;;30.30;99.90;;;;;;5043579;28;20556;-62
2023/10/19 11:38:43;;;;;;;129.48;73.45;;;30.30;99.90;;;;;;5045929;28;20046;-63
2023/10/19 11:41:12;;;;;;;119.45;72.10;;;30.30;99.90;;;;;;5040867;28;20017;-64
2023/10/19 11:43:40;;;;;;;117.10;63.25;;;30.30;99.90;;;;;;5044809;28;20029;-64
2023/10/19 11:46:07;;;;;;;174.50;110.85;;;30.30;99.90;;;;;;5043779;28;20032;-64
2023/10/19 11:48:36;;;;;;;108.35;57.60;;;30.20;99.90;;;;;;5048679;28;20025;-64
2023/10/19 11:51:04;;;;;;;104.18;57.42;;;30.10;99.90;;;;;;5053256;28;20025;-64
2023/10/19 11:53:33;;;;;;;111.18;57.15;;;30.20;99.90;;;;;;5033080;28;20490;-64
2023/10/19 11:56:07;;;;;;;101.15;57.20;;;30.10;99.90;;;;;;5035870;28;20413;-64
2023/10/19 11:58:34;;;;;;;105.05;58.65;;;30.10;99.90;;;;;;5035811;28;20096;-65
2023/10/19 12:01:35;;;;;;;107.07;59.95;;;30.20;99.90;;;;;;5035530;28;20017;-65
2023/10/19 12:03:57;;;;;;;119.45;66.20;;;30.20;99.90;;;;;;5033837;28;20060;-65
2023/10/19 12:06:25;;;;;;;139.63;82.63;;;30.10;99.90;;;;;;5039033;28;20021;-64
2023/10/19 12:08:51;;;;;;;146.48;89.03;;;30.10;99.90;;;;;;5049270;28;20028;-64
2023/10/19 12:11:22;;;;;;;128.40;77.97;;;30.10;99.90;;;;;;5054866;28;20025;-63
2023/10/19 12:13:49;;;;;;;120.78;68.05;;;30.10;99.90;;;;;;5054765;28;20066;-62
2023/10/19 12:16:16;;;;;;;103.05;55.28;;;30.10;99.90;;;;;;5055003;28;20036;-63
2023/10/19 12:18:43;;;;;;;97.80;54.65;;;30.00;99.90;;;;;;5054492;28;20102;-63
2023/10/19 12:21:13;;;;;;;89.28;51.72;;;30.00;99.90;;;;;;5045796;28;20025;-61
2023/10/19 12:23:41;;;;;;;102.30;53.60;;;29.90;99.90;;;;;;5043627;28;20047;-64
2023/10/19 12:26:11;;;;;;;87.95;50.22;;;29.90;99.90;;;;;;5040122;28;20021;-63
2023/10/19 12:28:42;;;;;;;109.50;54.03;;;29.90;99.90;;;;;;5044000;28;20028;-63
2023/10/19 12:31:10;;;;;;;99.68;52.60;;;29.90;99.90;;;;;;5040971;28;20470;-64
2023/10/19 12:33:38;;;;;;;91.55;51.30;;;29.90;99.90;;;;;;5043484;28;20037;-64
2023/10/19 12:36:52;;;;;;;92.28;49.17;;;29.90;99.90;;;;;;5045212;28;20021;-63
2023/10/19 12:38:52;;;;;;;88.05;49.03;;;29.80;99.90;;;;;;5043219;28;20029;-63
2023/10/19 12:41:20;;;;;;;85.57;45.28;;;29.80;99.90;;;;;;5044510;28;20105;-63
2023/10/19 12:43:46;;;;;;;81.65;46.10;;;29.90;99.90;;;;;;5042395;28;20018;-63
2023/10/19 12:46:15;;;;;;;85.22;45.65;;;29.80;99.90;;;;;;5044039;28;20020;-62
2023/10/19 12:48:43;;;;;;;82.97;47.92;;;29.80;99.90;;;;;;5044824;28;20067;-62
2023/10/19 12:51:14;;;;;;;82.25;47.35;;;29.90;99.90;;;;;;5040686;28;20045;-63
2023/10/19 12:53:40;;;;;;;85.85;44.28;;;29.80;99.90;;;;;;5043808;28;20090;-62
2023/10/19 12:56:10;;;;;;;93.65;46.97;;;29.80;99.90;;;;;;5041763;28;20021;-62
2023/10/19 12:58:38;;;;;;;88.22;47.88;;;29.80;99.90;;;;;;5040823;28;20021;-63
2023/10/19 13:01:05;;;;;;;92.85;49.00;;;29.80;99.90;;;;;;5039929;28;20040;-63
2023/10/19 13:03:32;;;;;;;99.00;51.42;;;29.80;99.90;;;;;;5043907;28;20097;-61